• Join FlightAware (Why Join?)
  • Login
  • US Flag 
10:24AM EDT


 

Airport Tracker/Info


-or-


 

Live Flight TrackerFlight Track Log ✈ SQC7971 ✈ 28-Mar-2013 ✈ KORD - EBBR / BRU

Flight Track Log - Related Links

Times and Time Zones

All times are in EDT time to prevent confusion due to time zone crossing. See the SQC7971 flight status page for this flight to view local times or setup timezone preferences in your user account.

Time Position Orientation Groundspeed Altitude Reporting Facility
EDT Latitude Longitude Course Direction KTS MPH feet Rate Location/Type
05:32AM 41.9690 -87.9330 270° West 168 193 1,000  Level FlightAware
05:33AM 41.9720 -87.9630 278° West 173 199 1,800 1,680 Climbing FlightAware
05:33AM 41.9790 -87.9950 286° West 177 204 2,700 1,500 Climbing FlightAware
05:34AM 41.9840 -88.0200 285° West 182 209 3,200 1,320 Climbing FlightAware
05:34AM 41.9910 -88.0360 300° West 183 211 3,600 960 Climbing FlightAware
05:34AM 42.0010 -88.0430 333° Northwest 194 223 3,700 600 Climbing FlightAware
05:34AM 42.0160 -88.0450 354° North 212 244 3,900 960 Climbing FlightAware
05:35AM 42.0270 -88.0450 360° North 219 252 4,100 1,200 Climbing FlightAware
05:35AM 42.0610 -88.0460 359° North 248 285 4,700 1,200 Climbing FlightAware
05:35AM 42.0730 -88.0460 360° North 256 295 4,900 1,500 Climbing FlightAware
05:36AM 42.1100 -88.0400 North 275 316 5,700 2,100 Climbing FlightAware
05:36AM 42.1480 -88.0310 10° North 282 325 7,000 2,400 Climbing FlightAware
05:37AM 42.1820 -88.0250 North 289 333 7,900 2,100 Climbing FlightAware
05:37AM 42.2010 -88.0250 360° North 293 337 8,400 2,400 Climbing FlightAware
05:37AM 42.2420 -88.0260 359° North 295 339 9,700 1,920 Climbing FlightAware
05:38AM 42.3050 -88.0260 360° North 327 376 10,800 1,440 Climbing FlightAware
05:39AM 42.3710 -88.0270 359° North 356 410 11,800 1,380 Climbing FlightAware
05:40AM 42.4370 -88.0290 359° North 379 436 12,700 1,800 Climbing FlightAware
05:40AM 42.4920 -88.0160 10° North 391 450 13,900 2,100 Climbing FlightAware
05:41AM 42.5500 -87.9630 34° Northeast 407 468 15,200 2,040 Climbing FlightAware
05:41AM 42.6150 -87.8850 41° Northeast 414 476 16,800 2,040 Climbing FlightAware
05:42AM 42.6750 -87.8160 40° Northeast 421 484 18,100 1,800 Climbing FlightAware
05:43AM 42.7250 -87.7400 48° Northeast 433 498 19,200 1,740 Climbing FlightAware
05:44AM 42.7740 -87.6280 59° Northeast 445 512 20,600 1,680 Climbing FlightAware
05:44AM 42.8140 -87.5330 60° Northeast 452 520 21,600 1,500 Climbing FlightAware
05:45AM 42.8560 -87.4340 60° Northeast 459 528 22,600 1,380 Climbing FlightAware
05:46AM 42.8980 -87.3320 61° Northeast 466 536 23,500 1,320 Climbing FlightAware
05:46AM 42.9480 -87.2150 60° Northeast 472 543 24,500 1,260 Climbing FlightAware
05:47AM 42.9960 -87.1000 60° Northeast 478 550 25,400 1,200 Climbing FlightAware
05:48AM 43.0390 -86.9980 60° Northeast 484 557 26,200 1,200 Climbing FlightAware
05:48AM 43.0840 -86.8880 61° Northeast 489 563 27,000 1,200 Climbing FlightAware
05:49AM 43.1350 -86.7650 60° Northeast 493 567 27,900 1,320 Climbing FlightAware
05:50AM 43.1800 -86.6560 60° Northeast 489 563 28,900 1,320 Climbing FlightAware
05:50AM 43.2250 -86.5470 60° Northeast 488 562 29,700 1,200 Climbing FlightAware
05:51AM 43.2740 -86.4280 60° Northeast 487 560 30,600 900 Climbing FlightAware
05:52AM 43.3160 -86.3250 61° Northeast 487 560 31,000 240 Climbing FlightAware
05:53AM 43.3660 -86.2020 61° Northeast 485 558 31,000  Level FlightAware
05:53AM 43.4150 -86.0810 61° Northeast 484 557 31,000  Level FlightAware
05:54AM 43.4570 -85.9770 61° Northeast 484 557 31,000  Level FlightAware
05:55AM 43.5070 -85.8510 61° Northeast 483 556 31,000  Level FlightAware
05:55AM 43.5520 -85.7390 61° Northeast 483 556 31,000  Level FlightAware
05:56AM 43.5950 -85.6300 61° Northeast 483 556 31,000  Level FlightAware
05:57AM 43.6430 -85.5100 61° Northeast 483 556 31,000  Level FlightAware
05:58AM 43.6860 -85.4020 61° Northeast 483 556 31,000  Level FlightAware
05:58AM 43.7280 -85.2950 61° Northeast 485 558 31,000  Level FlightAware
05:59AM 43.7770 -85.1690 62° Northeast 485 558 31,000  Level FlightAware
06:00AM 43.8190 -85.0610 62° Northeast 485 558 31,000  Level FlightAware
06:00AM 43.8620 -84.9510 62° Northeast 481 554 31,000  Level FlightAware
06:01AM 43.9080 -84.8330 62° Northeast 481 554 31,000  Level FlightAware
06:02AM 43.9500 -84.7240 62° Northeast 481 554 31,000  Level FlightAware
06:02AM 43.9920 -84.6140 62° Northeast 481 554 31,000  Level FlightAware
06:03AM 44.0400 -84.4890 62° Northeast 480 552 31,000  Level FlightAware
06:04AM 44.0810 -84.3800 62° Northeast 479 551 31,000  Level FlightAware
06:05AM 44.1260 -84.2610 62° Northeast 478 550 31,000  Level FlightAware
06:05AM 44.1670 -84.1540 62° Northeast 476 548 31,000  Level FlightAware
06:06AM 44.2080 -84.0430 63° Northeast 475 547 31,000  Level FlightAware
06:07AM 44.2550 -83.9200 62° Northeast 473 544 31,000  Level FlightAware
06:07AM 44.2940 -83.8150 63° Northeast 472 543 31,000  Level FlightAware
06:08AM 44.3380 -83.6970 62° Northeast 473 544 31,000  Level FlightAware
06:09AM 44.3800 -83.5820 63° Northeast 473 544 31,000  Level FlightAware
06:09AM 44.4200 -83.4740 63° Northeast 473 544 31,000  Level FlightAware
06:10AM 44.4780 -83.3660 53° Northeast 467 537 31,000  Level FlightAware
06:11AM 44.5450 -83.2920 38° Northeast 465 535 31,000  Level FlightAware
06:12AM 44.6250 -83.2110 36° Northeast 464 534 31,000  Level FlightAware
06:12AM 44.6950 -83.1390 36° Northeast 464 534 31,000  Level FlightAware
06:13AM 44.7640 -83.0660 37° Northeast 465 535 31,000  Level FlightAware
06:14AM 44.8380 -82.9890 36° Northeast 465 535 31,000  Level FlightAware
06:14AM 44.9070 -82.9160 37° Northeast 465 535 31,000  Level FlightAware
06:15AM 44.9870 -82.8310 37° Northeast 464 534 31,000  Level FlightAware
06:16AM 45.0540 -82.7600 37° Northeast 463 533 31,000  Level FlightAware
06:16AM 45.1240 -82.6860 37° Northeast 464 534 31,000  Level FlightAware
06:17AM 45.1990 -82.6060 37° Northeast 465 535 31,000  Level FlightAware
06:18AM 45.2680 -82.5320 37° Northeast 466 536 31,000  Level FlightAware
06:19AM 45.3470 -82.4460 37° Northeast 467 537 31,000  Level FlightAware
06:19AM 45.4230 -82.3660 36° Northeast 467 537 31,000  Level FlightAware
06:20AM 45.4920 -82.2910 37° Northeast 468 539 31,000  Level FlightAware
06:21AM 45.5600 -82.2160 38° Northeast 469 540 31,000  Level FlightAware
06:21AM 45.6330 -82.1370 37° Northeast 470 541 31,000  Level FlightAware
06:22AM 45.7050 -82.0580 37° Northeast 470 541 31,000  Level FlightAware
06:23AM 45.7680 -81.9900 37° Northeast 470 541 31,000  Level FlightAware
06:24AM 45.8730 -81.8750 37° Northeast 470 541 31,000  Level FlightAware
06:24AM 45.9320 -81.8110 37° Northeast 470 541 31,000  Level FlightAware
06:25AM 46.0260 -81.7050 38° Northeast 469 540 31,000  Level FlightAware
06:26AM 46.0950 -81.6280 38° Northeast 469 540 31,000  Level FlightAware
06:26AM 46.1500 -81.5680 37° Northeast 469 540 31,000  Level FlightAware
06:27AM 46.2360 -81.4710 38° Northeast 469 540 31,000  Level FlightAware
06:28AM 46.3090 -81.3880 38° Northeast 468 539 31,000  Level FlightAware
06:29AM 46.3820 -81.3060 38° Northeast 467 537 31,000  Level FlightAware
06:29AM 46.4370 -81.2430 38° Northeast 467 537 31,000  Level FlightAware
06:30AM 46.4810 -81.1940 37° Northeast 467 537 31,000  Level FlightAware
06:30AM 46.5380 -81.1280 39° Northeast 467 537 31,000  Level FlightAware
06:31AM 46.5960 -81.0630 38° Northeast 467 537 31,000  Level FlightAware
06:32AM 46.6690 -80.9800 38° Northeast 467 537 31,000  Level FlightAware
06:33AM 46.7270 -80.9140 38° Northeast 467 537 31,000  Level FlightAware
06:33AM 46.7840 -80.8480 38° Northeast 467 537 31,000  Level FlightAware
06:34AM 46.8420 -80.7820 38° Northeast 467 537 31,000  Level FlightAware
06:35AM 46.9000 -80.7160 38° Northeast 467 537 31,000  Level FlightAware
06:35AM 46.9730 -80.6330 38° Northeast 467 537 31,000  Level FlightAware
06:36AM 47.0300 -80.5670 38° Northeast 467 537 31,000  Level FlightAware
06:37AM 47.0880 -80.5010 38° Northeast 467 537 31,000  Level FlightAware
06:37AM 47.1460 -80.4340 38° Northeast 467 537 31,000  Level FlightAware
06:38AM 47.2040 -80.3680 38° Northeast 467 537 31,000  Level FlightAware
06:38AM 47.3667 -80.1167 38° Northeast 470 541 31,000  Level Toronto Center
06:39AM 47.4667 -80.0000 38° Northeast 470 541 31,000  Level Toronto Center
06:40AM 47.5667 -79.9000 34° Northeast 470 541 31,000  Level Toronto Center
06:41AM 47.6833 -79.7500 41° Northeast 470 541 31,000  Level Toronto Center
06:42AM 47.7167 -79.7333 19° North 470 541 31,000  Level Montreal Center
06:43AM 47.8167 -79.6167 38° Northeast 470 541 31,000  Level Montreal Center
06:44AM 47.9167 -79.5000 38° Northeast 470 541 31,000  Level Montreal Center
06:45AM 48.0167 -79.3833 38° Northeast 470 541 31,000  Level Montreal Center
06:46AM 48.1333 -79.2333 41° Northeast 470 541 31,000  Level Montreal Center
06:47AM 48.2167 -79.1167 43° Northeast 460 529 31,000  Level Montreal Center
06:48AM 48.3167 -79.0000 38° Northeast 470 541 31,000  Level Montreal Center
06:49AM 48.4167 -78.8833 38° Northeast 460 529 31,000  Level Montreal Center
06:50AM 48.5333 -78.7500 37° Northeast 470 541 31,000  Level Montreal Center
06:51AM 48.6167 -78.6333 43° Northeast 460 529 31,000  Level Montreal Center
06:52AM 48.7167 -78.5167 38° Northeast 470 541 31,000  Level Montreal Center
06:53AM 48.8167 -78.3667 45° Northeast 470 541 31,000  Level Montreal Center
06:54AM 48.9333 -78.2500 33° Northeast 460 529 31,000  Level Montreal Center
06:55AM 49.0333 -78.1167 41° Northeast 470 541 31,000  Level Montreal Center
06:56AM 49.1167 -78.0000 42° Northeast 470 541 31,000  Level Montreal Center
06:57AM 49.2167 -77.8500 44° Northeast 460 529 31,000  Level Montreal Center
06:58AM 49.3167 -77.7167 41° Northeast 490 564 31,000  Level Montreal Center
06:59AM 49.4333 -77.6000 33° Northeast 490 564 31,000  Level Montreal Center
07:00AM 49.5333 -77.4667 41° Northeast 460 529 31,000  Level Montreal Center
07:01AM 49.6167 -77.3167 49° Northeast 470 541 31,000  Level Montreal Center
07:02AM 49.7167 -77.1833 41° Northeast 470 541 31,000  Level Montreal Center
07:03AM 49.8167 -77.0667 37° Northeast 470 541 31,000  Level Montreal Center
07:04AM 49.9167 -76.9000 47° Northeast 470 541 31,000  Level Montreal Center
07:05AM 50.0167 -76.7833 37° Northeast 470 541 31,000  Level Montreal Center
07:06AM 50.1167 -76.6500 41° Northeast 470 541 31,000  Level Montreal Center
07:07AM 50.2167 -76.5167 40° Northeast 470 541 31,000  Level Montreal Center
07:08AM 50.3167 -76.3833 40° Northeast 470 541 31,000  Level Montreal Center
07:09AM 50.4167 -76.2333 44° Northeast 470 541 31,000  Level Montreal Center
07:10AM 50.5167 -76.1000 40° Northeast 470 541 31,000  Level Montreal Center
07:11AM 50.6167 -75.9667 40° Northeast 470 541 31,000  Level Montreal Center
07:12AM 50.7167 -75.8333 40° Northeast 470 541 31,000  Level Montreal Center
07:13AM 50.8000 -75.6667 52° Northeast 470 541 31,000  Level Montreal Center
07:14AM 50.9000 -75.5333 40° Northeast 470 541 31,000  Level Montreal Center
07:15AM 51.0000 -75.4000 40° Northeast 470 541 31,000  Level Montreal Center
07:16AM 51.1000 -75.2333 46° Northeast 470 541 31,000  Level Montreal Center
07:17AM 51.2000 -75.1000 40° Northeast 480 552 31,000 180 Level Montreal Center
07:18AM 51.3000 -74.9500 43° Northeast 480 552 31,400 780 Climbing Montreal Center
07:19AM 51.3833 -74.7833 51° Northeast 480 552 32,600 780 Climbing Montreal Center
07:20AM 51.4667 -74.6167 51° Northeast 480 552 33,000 180 Climbing Montreal Center
07:21AM 51.5500 -74.4500 51° Northeast 470 541 33,000  Level Montreal Center
07:22AM 51.6333 -74.2833 51° Northeast 470 541 33,000  Level Montreal Center
07:23AM 51.7167 -74.1167 51° Northeast 470 541 33,000  Level Montreal Center
07:24AM 51.7833 -73.9500 57° Northeast 470 541 33,000  Level Montreal Center
07:25AM 51.8667 -73.7500 56° Northeast 470 541 33,000  Level Montreal Center
07:26AM 51.9500 -73.6167 45° Northeast 470 541 33,000  Level Montreal Center
07:27AM 52.0333 -73.4167 56° Northeast 470 541 33,000  Level Montreal Center
07:28AM 52.1167 -73.2500 51° Northeast 470 541 33,000  Level Montreal Center
07:29AM 52.2000 -73.1000 48° Northeast 470 541 33,000  Level Montreal Center
07:30AM 52.2667 -72.9167 59° Northeast 470 541 33,000  Level Montreal Center
07:31AM 52.3500 -72.7333 53° Northeast 480 552 33,000  Level Montreal Center
07:32AM 52.4333 -72.5667 51° Northeast 470 541 33,000  Level Montreal Center
07:33AM 52.5167 -72.4000 51° Northeast 480 552 33,000  Level Montreal Center
07:34AM 52.5833 -72.2167 59° Northeast 470 541 33,000  Level Montreal Center
07:35AM 52.6667 -72.0500 50° Northeast 480 552 33,000  Level Montreal Center
07:36AM 52.7500 -71.8500 55° Northeast 470 541 33,000  Level Montreal Center
07:37AM 52.8167 -71.6667 59° Northeast 480 552 33,000  Level Montreal Center
07:38AM 52.9000 -71.5000 50° Northeast 470 541 33,000  Level Montreal Center
07:39AM 52.9833 -71.3167 53° Northeast 470 541 33,000  Level Montreal Center
07:40AM 53.0500 -71.1500 56° Northeast 470 541 33,000  Level Montreal Center
07:41AM 53.1333 -70.9667 53° Northeast 470 541 33,000  Level Montreal Center
07:42AM 53.2167 -70.7833 53° Northeast 470 541 33,000  Level Montreal Center
07:43AM 53.2833 -70.6167 56° Northeast 470 541 33,000  Level Montreal Center
07:44AM 53.3667 -70.4333 53° Northeast 470 541 33,000  Level Montreal Center
07:45AM 53.4333 -70.2500 59° Northeast 470 541 33,000  Level Montreal Center
07:46AM 53.5167 -70.0667 53° Northeast 470 541 33,000  Level Montreal Center
07:46AM 53.5500 -70.0500 17° North 480 552 33,000  Level Gander Center
07:47AM 53.6167 -69.8667 58° Northeast 470 541 33,000  Level Gander Center
07:48AM 53.6667 -69.7000 63° Northeast 470 541 33,000  Level Montreal Center
07:48AM 53.6833 -69.6833 31° Northeast 480 552 33,000  Level Gander Center
07:49AM 53.7333 -69.5167 63° Northeast 470 541 33,000  Level Montreal Center
07:50AM 53.8167 -69.3333 52° Northeast 470 541 33,000  Level Montreal Center
07:51AM 53.8833 -69.1500 58° Northeast 470 541 33,000  Level Montreal Center
07:52AM 53.9667 -68.9667 52° Northeast 470 541 33,000  Level Montreal Center
07:53AM 54.0333 -68.7833 58° Northeast 470 541 33,000  Level Montreal Center
07:54AM 54.1000 -68.6000 58° Northeast 470 541 33,000  Level Montreal Center
07:55AM 54.1833 -68.4167 52° Northeast 470 541 33,000  Level Montreal Center
07:56AM 54.2500 -68.2333 58° Northeast 470 541 33,000  Level Montreal Center
07:57AM 54.3333 -68.0333 54° Northeast 470 541 33,000  Level Montreal Center
07:58AM 54.4000 -67.8500 58° Northeast 460 529 33,000  Level Montreal Center
07:59AM 54.4667 -67.6667 58° Northeast 460 529 33,000  Level Montreal Center
08:00AM 54.5333 -67.4667 60° Northeast 460 529 33,000  Level Montreal Center
08:01AM 54.6167 -67.2833 52° Northeast 460 529 33,000  Level Montreal Center
08:02AM 54.6833 -67.1000 58° Northeast 470 541 33,000  Level Montreal Center
08:02AM 54.7000 -67.0333 67° East 470 541 33,000  Level Gander Center
08:03AM 54.7833 -66.8500 52° Northeast 470 541 33,000  Level Gander Center
08:04AM 54.8000 -66.7167 78° East 470 541 33,000  Level Montreal Center
08:05AM 54.8833 -66.5500 49° Northeast 460 529 33,000  Level Montreal Center
08:05AM 54.9333 -66.4667 44° Northeast 470 541 33,000  Level Gander Center
08:06AM 54.9500 -66.3500 76° East 470 541 33,000  Level Montreal Center
08:07AM 55.0167 -66.1333 62° Northeast 490 564 33,000  Level Montreal Center
08:08AM 55.1000 -65.9333 54° Northeast 460 529 33,000  Level Montreal Center
08:08AM 55.1333 -65.9000 30° Northeast 470 541 33,000  Level Gander Center
08:09AM 55.1667 -65.7333 71° East 470 541 33,000  Level Montreal Center
08:10AM 55.2333 -65.5500 57° Northeast 470 541 33,000  Level Montreal Center
08:10AM 55.2667 -65.5000 41° Northeast 470 541 33,000  Level Gander Center
08:11AM 55.3000 -65.3500 69° East 470 541 33,000  Level Montreal Center
08:12AM 55.3667 -65.1500 60° Northeast 470 541 33,000  Level Montreal Center
08:12AM 55.4167 -65.1000 30° Northeast 470 541 33,000  Level Gander Center
08:13AM 55.4833 -64.9333 55° Northeast 460 529 33,000  Level Gander Center
08:14AM 55.5167 -64.7833 69° East 460 529 33,000  Level Montreal Center
08:15AM 55.5833 -64.5833 59° Northeast 460 529 33,000  Level Montreal Center
08:16AM 55.6500 -64.3833 59° Northeast 460 529 33,000  Level Montreal Center
08:16AM 55.6833 -64.3333 40° Northeast 460 529 33,000  Level Gander Center
08:17AM 55.7333 -64.1667 62° Northeast 460 529 33,000  Level Gander Center
08:18AM 55.7833 -64.0000 62° Northeast 460 529 33,000  Level Montreal Center
08:19AM 55.8500 -63.8000 59° Northeast 460 529 33,000  Level Montreal Center
08:19AM 55.8833 -63.7500 40° Northeast 470 541 33,000  Level Gander Center
08:20AM 55.9500 -63.5500 59° Northeast 470 541 33,000  Level Gander Center
08:21AM 56.0000 -63.3667 64° Northeast 460 529 33,000  Level Gander Center
08:22AM 56.0667 -63.1333 63° Northeast 460 529 33,000  Level Gander Center
08:23AM 56.1333 -62.9667 54° Northeast 460 529 33,000  Level Gander Center
08:25AM 56.2333 -62.6167 63° Northeast 470 541 33,000  Level Montreal Center
08:25AM 56.2667 -62.5500 48° Northeast 470 541 33,000  Level Gander Center
08:26AM 56.3333 -62.3333 61° Northeast 470 541 33,000  Level Gander Center
08:27AM 56.3667 -62.2333 59° Northeast 460 529 33,000  Level Montreal Center
08:27AM 56.4000 -62.1333 59° Northeast 480 552 33,000  Level Gander Center
08:29AM 56.4833 -61.8167 64° Northeast 470 541 33,000  Level Montreal Center
08:29AM 56.5167 -61.7000 63° Northeast 460 529 33,000  Level Gander Center
08:30AM 56.5833 -61.5167 57° Northeast 490 564 33,000  Level Gander Center
08:31AM 56.6333 -61.2833 69° East 480 552 33,000  Level Gander Center
08:32AM 56.7000 -61.0667 61° Northeast 480 552 33,000  Level Gander Center
08:33AM 56.7500 -60.8500 67° East 480 552 33,000  Level Gander Center
08:34AM 56.8167 -60.6500 59° Northeast 500 575 33,000  Level Gander Center
08:35AM 56.8667 -60.4333 67° East 490 564 33,000  Level Gander Center
08:36AM 56.9333 -60.2167 61° Northeast 480 552 33,100 540 Climbing Gander Center
08:37AM 57.0000 -59.9667 64° Northeast 480 552 34,100 900 Climbing Gander Center
08:38AM 57.0500 -59.7500 67° East 490 564 35,000 420 Climbing Gander Center
08:39AM 57.1000 -59.5333 67° East 490 564 35,000  Level Gander Center
08:40AM 57.1500 -59.3167 67° East 480 552 35,000  Level Gander Center
08:41AM 57.2167 -59.1000 60° Northeast 480 552 35,000  Level Gander Center
08:42AM 57.3000 -58.8667 56° Northeast 480 552 35,000  Level Gander Center
08:43AM 57.3667 -58.7167 50° Northeast 480 552 35,000  Level Gander Center
08:44AM 57.4167 -58.5167 65° Northeast 480 552 35,000  Level Gander Center
08:45AM 57.5167 -58.2333 57° Northeast 480 552 35,000  Level Gander Center
08:46AM 57.5500 -58.0833 67° East 470 541 35,000  Level Gander Center
08:47AM 57.6667 -57.8833 42° Northeast 470 541 35,000  Level Gander Center
08:48AM 57.7167 -57.6667 67° East 490 564 35,000  Level Gander Center
08:49AM 57.8000 -57.4667 52° Northeast 490 564 35,000  Level Gander Center
08:50AM 57.8500 -57.2333 68° East 480 552 35,000  Level Gander Center
08:51AM 57.9333 -57.0333 52° Northeast 480 552 35,000  Level Gander Center
08:52AM 58.0167 -56.8167 54° Northeast 480 552 35,000  Level Gander Center
08:54AM 58.1026 -56.5876 59° Northeast  Level FlightAware Approximate
08:54AM 58.1500 -56.3833 59° Northeast 270 311 35,000  Level Gander Center
08:55AM 58.2000 -56.2500 55° Northeast 460 529 35,000  Level Gander Center
08:56AM 58.2667 -56.0167 61° Northeast 490 564 35,000  Level Gander Center
08:57AM 58.3333 -55.8167 58° Northeast 480 552 35,000  Level Gander Center
08:58AM 58.4167 -55.5833 56° Northeast 490 564 35,000  Level Gander Center
08:59AM 58.4667 -55.3500 68° East 490 564 35,000  Level Gander Center
09:00AM 58.5667 -55.1500 46° Northeast 490 564 35,000  Level Gander Center
09:01AM 58.6167 -54.9167 68° East 500 575 35,000  Level Gander Center
09:02AM 58.6833 -54.6667 63° Northeast 500 575 35,000  Level Gander Center
09:03AM 58.7667 -54.4333 55° Northeast 500 575 35,000  Level Gander Center
09:05AM 58.8765 -54.0675 60° Northeast  Level FlightAware Approximate
09:12AM 59.3445 -52.4616 60° Northeast  Level FlightAware Approximate
09:13AM 59.4097 -52.2286 61° Northeast  Level FlightAware Approximate
09:14AM 59.4745 -51.9947 61° Northeast  Level FlightAware Approximate
09:15AM 59.5388 -51.7598 62° Northeast  Level FlightAware Approximate
09:16AM 59.6027 -51.5241 62° Northeast  Level FlightAware Approximate
09:17AM 59.6662 -51.2874 62° Northeast  Level FlightAware Approximate
09:18AM 59.7292 -51.0499 62° Northeast  Level FlightAware Approximate
09:19AM 59.7918 -50.8114 62° Northeast  Level FlightAware Approximate
09:20AM 59.8540 -50.5721 63° Northeast  Level FlightAware Approximate
09:21AM 59.9158 -50.3319 63° Northeast  Level FlightAware Approximate
09:22AM 59.9771 -50.0908 63° Northeast  Level FlightAware Approximate
09:23AM 60.0374 -49.8482 64° Northeast  Level FlightAware Approximate
09:24AM 60.0969 -49.6044 64° Northeast  Level FlightAware Approximate
09:25AM 60.1559 -49.3597 64° Northeast  Level FlightAware Approximate
09:26AM 60.2145 -49.1141 64° Northeast  Level FlightAware Approximate
09:27AM 60.2726 -48.8677 64° Northeast  Level FlightAware Approximate
09:28AM 60.3303 -48.6204 65° Northeast  Level FlightAware Approximate
09:29AM 60.3875 -48.3722 65° Northeast  Level FlightAware Approximate
09:30AM 60.4443 -48.1231 65° Northeast  Level FlightAware Approximate
09:31AM 60.5007 -47.8733 65° Northeast  Level FlightAware Approximate
09:32AM 60.5570 -47.6229 65° Northeast  Level FlightAware Approximate
09:33AM 60.6128 -47.3717 66° East  Level FlightAware Approximate
09:34AM 60.6681 -47.1196 66° East  Level FlightAware Approximate
09:35AM 60.7229 -46.8666 66° East  Level FlightAware Approximate
09:36AM 60.7773 -46.6127 66° East  Level FlightAware Approximate
09:37AM 60.8312 -46.3580 66° East  Level FlightAware Approximate
09:38AM 60.8846 -46.1025 67° East  Level FlightAware Approximate
09:39AM 60.9376 -45.8461 67° East  Level FlightAware Approximate
09:40AM 60.9911 -45.5898 67° East  Level FlightAware Approximate
09:41AM 61.0442 -45.3326 67° East  Level FlightAware Approximate
09:42AM 61.0967 -45.0746 67° East  Level FlightAware Approximate
09:43AM 61.1487 -44.8157 67° East  Level FlightAware Approximate
09:44AM 61.2002 -44.5559 68° East  Level FlightAware Approximate
09:45AM 61.2513 -44.2953 68° East  Level FlightAware Approximate
09:46AM 61.3018 -44.0339 68° East  Level FlightAware Approximate
09:47AM 61.3518 -43.7716 68° East  Level FlightAware Approximate
09:48AM 61.4013 -43.5085 68° East  Level FlightAware Approximate
09:49AM 61.4504 -43.2445 69° East  Level FlightAware Approximate
09:50AM 61.4989 -42.9798 69° East  Level FlightAware Approximate
09:51AM 61.5468 -42.7142 69° East  Level FlightAware Approximate
09:52AM 61.5943 -42.4477 69° East  Level FlightAware Approximate
09:53AM 61.6413 -42.1805 70° East  Level FlightAware Approximate
09:54AM 61.6877 -41.9125 70° East  Level FlightAware Approximate
09:55AM 61.7336 -41.6436 70° East  Level FlightAware Approximate
09:56AM 61.7790 -41.3740 70° East  Level FlightAware Approximate
09:57AM 61.8238 -41.1036 71° East  Level FlightAware Approximate
09:58AM 61.8681 -40.8323 71° East  Level FlightAware Approximate
09:59AM 61.9119 -40.5603 71° East  Level FlightAware Approximate
10:00AM 61.9551 -40.2876 71° East  Level FlightAware Approximate
10:01AM 61.9978 -40.0140 72° East  Level FlightAware Approximate
10:02AM 62.0096 -39.7270 86° East  Level FlightAware Approximate
10:03AM 62.0192 -39.4391 86° East  Level FlightAware Approximate
10:04AM 62.0281 -39.1511 86° East  Level FlightAware Approximate
10:05AM 62.0365 -38.8628 86° East  Level FlightAware Approximate
10:06AM 62.0443 -38.5745 87° East  Level FlightAware Approximate
10:07AM 62.0514 -38.2859 87° East  Level FlightAware Approximate
10:08AM 62.0580 -37.9973 87° East  Level FlightAware Approximate
10:09AM 62.0639 -37.7085 87° East  Level FlightAware Approximate
10:10AM 62.0693 -37.4197 88° East  Level FlightAware Approximate
10:11AM 62.0741 -37.1307 88° East  Level FlightAware Approximate
10:12AM 62.0782 -36.8416 88° East  Level FlightAware Approximate
10:13AM 62.0817 -36.5525 88° East  Level FlightAware Approximate
10:14AM 62.0847 -36.2633 89° East  Level FlightAware Approximate
10:15AM 62.0870 -35.9741 89° East  Level FlightAware Approximate
10:16AM 62.0887 -35.6848 89° East  Level FlightAware Approximate
10:17AM 62.0899 -35.3955 89° East  Level FlightAware Approximate
10:18AM 62.0904 -35.1062 90° East  Level FlightAware Approximate
10:19AM 62.0903 -34.8168 90° East  Level FlightAware Approximate
10:20AM 62.0896 -34.5275 90° East  Level FlightAware Approximate
10:21AM 62.0883 -34.2382 90° East  Level FlightAware Approximate
10:22AM 62.0865 -33.9490 91° East  Level FlightAware Approximate
10:23AM 62.0840 -33.6597 91° East  Level FlightAware Approximate
10:24AM 62.0809 -33.3705 91° East  Level FlightAware Approximate
10:25AM 62.0772 -33.0814 91° East  Level FlightAware Approximate
10:26AM 62.0728 -32.7924 92° East  Level FlightAware Approximate
10:27AM 62.0679 -32.5035 92° East  Level FlightAware Approximate
10:28AM 62.0624 -32.2146 92° East  Level FlightAware Approximate
10:29AM 62.0563 -31.9259 92° East  Level FlightAware Approximate
10:30AM 62.0496 -31.6373 93° East  Level FlightAware Approximate
10:31AM 62.0423 -31.3488 93° East  Level FlightAware Approximate
10:32AM 62.0344 -31.0604 93° East  Level FlightAware Approximate
10:33AM 62.0258 -30.7723 93° East  Level FlightAware Approximate
10:34AM 62.0167 -30.4843 94° East  Level FlightAware Approximate
10:35AM 62.0070 -30.1964 94° East  Level FlightAware Approximate
10:36AM 61.9866 -29.9131 108° East  Level FlightAware Approximate
10:37AM 61.9442 -29.6395 108° East  Level FlightAware Approximate
10:38AM 61.9012 -29.3666 108° East  Level FlightAware Approximate
10:39AM 61.8577 -29.0945 109° East  Level FlightAware Approximate
10:40AM 61.8136 -28.8232 109° East  Level FlightAware Approximate
10:41AM 61.7690 -28.5527 109° East  Level FlightAware Approximate
10:42AM 61.7239 -28.2830 109° East  Level FlightAware Approximate
10:43AM 61.6782 -28.0140 110° East  Level FlightAware Approximate
10:43AM 61.4770 -26.8560 110° East 508 585 35,000  Level FlightAware
10:43AM 61.4380 -26.6440 111° Southeast 510 587 35,000  Level FlightAware
10:44AM 61.4060 -26.4680 111° Southeast 511 588 35,000  Level FlightAware
10:45AM 61.3720 -26.2860 111° Southeast 510 587 35,000  Level FlightAware
10:45AM 61.3330 -26.0770 111° Southeast 512 589 35,000  Level FlightAware
10:46AM 61.2980 -25.8930 112° Southeast 513 590 35,000  Level FlightAware
10:47AM 61.2590 -25.6910 112° Southeast 512 589 35,000  Level FlightAware
10:48AM 61.2240 -25.5100 112° Southeast 511 588 35,000  Level FlightAware
10:48AM 61.1880 -25.3210 111° Southeast 511 588 35,000  Level FlightAware
10:49AM 61.1480 -25.1200 112° Southeast 512 589 35,000  Level FlightAware
10:50AM 61.1120 -24.9390 112° Southeast 511 588 35,000  Level FlightAware
10:50AM 61.0710 -24.7340 112° Southeast 512 589 35,000  Level FlightAware
10:51AM 61.0350 -24.5550 112° Southeast 512 589 35,000  Level FlightAware
10:52AM 61.0000 -24.3820 113° Southeast 512 589 35,000  Level FlightAware
10:52AM 60.9570 -24.1740 113° Southeast 512 589 35,000  Level FlightAware
10:53AM 60.9200 -24.0000 114° Southeast 512 589 35,000  Level FlightAware
10:54AM 60.8820 -23.8180 113° Southeast 511 588 35,000  Level FlightAware
10:54AM 60.8450 -23.6410 113° Southeast 511 588 35,000  Level FlightAware
10:55AM 60.8030 -23.4450 114° Southeast 512 589 35,000  Level FlightAware
10:56AM 60.7640 -23.2630 114° Southeast 513 590 35,000  Level FlightAware
10:57AM 60.7210 -23.0670 114° Southeast 512 589 35,000  Level FlightAware
10:57AM 60.6830 -22.8930 114° Southeast 513 590 35,000  Level FlightAware
10:58AM 60.6440 -22.7140 114° Southeast 513 590 35,000  Level FlightAware
10:59AM 60.6110 -22.5640 114° Southeast 513 590 35,000  Level FlightAware
10:59AM 60.5780 -22.4140 114° Southeast 513 590 35,000  Level FlightAware
11:00AM 60.5210 -22.1720 115° Southeast 514 592 35,000  Level FlightAware
11:01AM 60.4840 -22.0060 114° Southeast 514 592 35,000  Level FlightAware
11:01AM 60.4510 -21.8570 114° Southeast 514 592 35,000  Level FlightAware
11:02AM 60.4100 -21.6690 114° Southeast 514 592 35,000  Level FlightAware
11:03AM 60.3770 -21.5200 114° Southeast 514 592 35,000  Level FlightAware
11:04AM 60.3080 -21.2530 117° Southeast 516 594 35,000  Level FlightAware
11:04AM 60.2740 -21.1050 115° Southeast 516 594 35,000  Level FlightAware
11:05AM 60.2390 -20.9560 115° Southeast 516 594 35,000  Level FlightAware
11:06AM 60.2050 -20.8080 115° Southeast 516 594 35,000  Level FlightAware
11:06AM 60.1710 -20.6600 115° Southeast 516 594 35,000  Level FlightAware
11:07AM 60.1280 -20.4760 115° Southeast 516 594 35,000  Level FlightAware
11:08AM 60.0930 -20.3280 115° Southeast 516 594 35,000  Level FlightAware
11:08AM 60.0590 -20.1810 115° Southeast 516 594 35,000  Level FlightAware
11:09AM 60.0250 -20.0330 115° Southeast 516 594 35,000  Level FlightAware
11:10AM 59.9900 -19.8860 115° Southeast 516 594 35,000  Level FlightAware
11:11AM 59.9480 -19.7020 114° Southeast 516 594 35,000  Level FlightAware
11:11AM 59.9130 -19.5560 116° Southeast 516 594 35,000  Level FlightAware
11:12AM 59.8790 -19.4090 115° Southeast 516 594 35,000  Level FlightAware
11:13AM 59.8450 -19.2620 115° Southeast 516 594 35,000  Level FlightAware
11:15AM 59.6548 -18.9248 138° Southeast  Level FlightAware Approximate
11:16AM 59.5534 -18.7473 138° Southeast  Level FlightAware Approximate
11:17AM 59.4999 -18.5019 127° Southeast  Level Estimated
11:18AM 59.4117 -18.2998 131° Southeast  Level FlightAware Approximate
11:19AM 59.3231 -18.0988 131° Southeast  Level FlightAware Approximate
11:20AM 59.2342 -17.8988 131° Southeast  Level FlightAware Approximate
11:21AM 59.1450 -17.6999 131° Southeast  Level FlightAware Approximate
11:22AM 59.0555 -17.5019 131° Southeast  Level FlightAware Approximate
11:23AM 59.0013 -17.2607 128° Southeast  Level Estimated
11:24AM 58.9154 -17.0578 129° Southeast  Level FlightAware Approximate
11:25AM 58.8291 -16.8559 129° Southeast  Level FlightAware Approximate
11:26AM 58.7425 -16.6550 130° Southeast  Level FlightAware Approximate
11:27AM 58.6555 -16.4551 130° Southeast  Level FlightAware Approximate
11:28AM 58.5683 -16.2562 130° Southeast  Level FlightAware Approximate
11:29AM 58.4808 -16.0583 130° Southeast  Level FlightAware Approximate
11:30AM 58.3930 -15.8613 130° Southeast  Level FlightAware Approximate
11:31AM 58.3048 -15.6654 131° Southeast  Level FlightAware Approximate
11:32AM 58.2164 -15.4704 131° Southeast  Level FlightAware Approximate
11:33AM 58.1277 -15.2764 131° Southeast  Level FlightAware Approximate
11:34AM 58.0387 -15.0834 131° Southeast  Level FlightAware Approximate
11:35AM 57.9837 -14.8497 133° Southeast  Level Estimated
11:36AM 57.8895 -14.6664 134° Southeast  Level FlightAware Approximate
11:37AM 57.7951 -14.4840 134° Southeast  Level FlightAware Approximate
11:38AM 57.7004 -14.3026 134° Southeast  Level FlightAware Approximate
11:39AM 57.6054 -14.1221 134° Southeast  Level FlightAware Approximate
11:40AM 57.5102 -13.9426 135° Southeast  Level FlightAware Approximate
11:41AM 57.4147 -13.7640 135° Southeast  Level FlightAware Approximate
11:42AM 57.3190 -13.5863 135° Southeast  Level FlightAware Approximate
11:43AM 57.2230 -13.4096 135° Southeast  Level FlightAware Approximate
11:44AM 57.1268 -13.2338 135° Southeast  Level FlightAware Approximate
11:45AM 57.0304 -13.0589 135° Southeast  Level FlightAware Approximate
11:46AM 56.9337 -12.8849 135° Southeast  Level FlightAware Approximate
11:47AM 56.8367 -12.7118 136° Southeast  Level FlightAware Approximate
11:48AM 56.7396 -12.5395 136° Southeast  Level FlightAware Approximate
11:48AM 56.3430 -11.7810 136° Southeast 519 597 35,000  Level FlightAware
11:49AM 56.6422 -12.3682 136° Southeast  Level FlightAware Approximate
11:49AM 56.2680 -11.6470 135° Southeast 519 597 35,000  Level FlightAware
11:50AM 56.1970 -11.5200 135° Southeast 521 600 35,000  Level FlightAware
11:50AM 56.1300 -11.4000 135° Southeast 521 600 35,000  Level FlightAware
11:51AM 56.0530 -11.2650 136° Southeast 521 600 35,000  Level FlightAware
11:52AM 55.9830 -11.1420 135° Southeast 521 600 35,000  Level FlightAware
11:53AM 55.9070 -11.0080 135° Southeast 521 600 35,000  Level FlightAware
11:53AM 55.8390 -10.8890 135° Southeast 521 600 35,000  Level FlightAware
11:54AM 55.7690 -10.7690 136° Southeast 521 600 35,000  Level FlightAware
11:55AM 55.6910 -10.6340 136° Southeast 519 597 35,000  Level FlightAware
11:55AM 55.6220 -10.5160 136° Southeast 519 597 35,000  Level FlightAware
11:56AM 55.5430 -10.3820 136° Southeast 514 592 35,000  Level FlightAware
11:57AM 55.4760 -10.2670 136° Southeast 515 593 35,000  Level FlightAware
11:57AM 55.4050 -10.1490 137° Southeast 516 594 35,000  Level FlightAware
11:58AM 55.3290 -10.0210 136° Southeast 517 595 35,000  Level FlightAware
11:59AM 55.2600 -9.9060 136° Southeast 518 596 35,000  Level FlightAware
12:00PM 55.1780 -9.7700 137° Southeast 519 597 35,000  Level FlightAware
12:00PM 55.1080 -9.6560 137° Southeast 526 605 35,000  Level FlightAware
12:01PM 55.0370 -9.5380 136° Southeast 527 606 35,000  Level FlightAware
12:02PM 54.9570 -9.4080 137° Southeast 528 608 35,000  Level FlightAware
12:02PM 54.8870 -9.2930 137° Southeast 529 609 35,000  Level FlightAware
12:03PM 54.8050 -9.1620 137° Southeast 531 611 35,000  Level FlightAware
12:04PM 54.7330 -9.0470 137° Southeast 532 612 35,000  Level FlightAware
12:04PM 54.6600 -8.9300 137° Southeast 528 608 35,000  Level FlightAware
12:05PM 54.5800 -8.8030 137° Southeast 529 609 35,000  Level FlightAware
12:06PM 54.5060 -8.6850 137° Southeast 528 608 35,000  Level FlightAware
12:07PM 54.4250 -8.5590 138° Southeast 528 608 35,000  Level FlightAware
12:07PM 54.3530 -8.4450 137° Southeast 528 608 35,000  Level FlightAware
12:08PM 54.2790 -8.3310 138° Southeast 528 608 35,000  Level FlightAware
12:09PM 54.1970 -8.2050 138° Southeast 527 606 35,000  Level FlightAware
12:09PM 54.1230 -8.0900 138° Southeast 529 609 35,000  Level FlightAware
12:10PM 54.0410 -7.9650 138° Southeast 536 617 35,000  Level FlightAware
12:11PM 53.9680 -7.8540 138° Southeast 536 617 35,000  Level FlightAware
12:11PM 53.8930 -7.7400 138° Southeast 538 619 35,000  Level FlightAware
12:12PM 53.8120 -7.6180 138° Southeast 540 621 35,000  Level FlightAware
12:13PM 53.7350 -7.5020 138° Southeast 541 623 35,000  Level FlightAware
12:14PM 53.6520 -7.3790 139° Southeast 542 624 35,000  Level FlightAware
12:14PM 53.5750 -7.2650 139° Southeast 536 617 35,000  Level FlightAware
12:15PM 53.5010 -7.1550 138° Southeast 536 617 35,000  Level FlightAware
12:16PM 53.4170 -7.0320 139° Southeast 537 618 35,000  Level FlightAware
12:16PM 53.3400 -6.9200 139° Southeast 538 619 35,000  Level FlightAware
12:17PM 53.2560 -6.7970 139° Southeast 539 620 35,000  Level FlightAware
12:18PM 53.1790 -6.6860 139° Southeast 540 621 35,000  Level FlightAware
12:18PM 53.0940 -6.5630 139° Southeast 548 631 35,000  Level FlightAware
12:19PM 53.0160 -6.4520 139° Southeast 548 631 35,000  Level FlightAware
12:20PM 52.9390 -6.3430 140° Southeast 549 632 35,000  Level FlightAware
12:20PM 52.8640 -6.2370 140° Southeast 550 633 35,000  Level FlightAware
12:21PM 52.7750 -6.1110 139° Southeast 550 633 35,000  Level FlightAware
12:22PM 52.6890 -5.9900 140° Southeast 551 634 35,000  Level FlightAware
12:23PM 52.6110 -5.8810 140° Southeast 552 635 35,000  Level FlightAware
12:23PM 52.5340 -5.7740 140° Southeast 552 635 35,000  Level FlightAware
12:24PM 52.4470 -5.6540 140° Southeast 546 628 35,000  Level FlightAware
12:25PM 52.3690 -5.5470 140° Southeast 546 628 35,000  Level FlightAware
12:25PM 52.3070 -5.4630 140° Southeast 546 628 35,000  Level FlightAware
12:26PM 52.1970 -5.3140 140° Southeast 551 634 35,000  Level FlightAware
12:27PM 52.1180 -5.2070 140° Southeast 552 635 35,000  Level FlightAware
12:28PM 52.0310 -5.0910 141° Southeast 553 636 35,000  Level FlightAware
12:28PM 51.9520 -4.9840 140° Southeast 554 638 35,000  Level FlightAware
12:29PM 51.8900 -4.8550 128° Southeast 553 636 35,000  Level FlightAware
12:30PM 51.8530 -4.6760 108° East 545 627 35,000  Level FlightAware
12:30PM 51.8390 -4.5150 98° East 545 627 35,000  Level FlightAware
12:31PM 51.8250 -4.3560 98° East 546 628 35,000  Level FlightAware
12:32PM 51.8080 -4.1720 98° East 545 627 35,000  Level FlightAware
12:32PM 51.7940 -4.0230 99° East 543 625 35,000  Level FlightAware
12:33PM 51.7760 -3.8350 99° East 541 623 35,000  Level FlightAware
12:34PM 51.7600 -3.6760 99° East 539 620 35,000  Level FlightAware
12:34PM 51.7440 -3.5170 99° East 538 619 35,000  Level FlightAware
12:35PM 51.7270 -3.3420 99° East 539 620 35,000  Level FlightAware
12:35PM 51.7221 -3.2967 100° East 538 619 35,000  Level FlightAware ADS-B
12:36PM 51.7096 -3.1744 99° East 538 619 35,000  Level FlightAware ADS-B
12:36PM 51.6969 -3.0515 99° East 537 618 35,000  Level FlightAware ADS-B
12:37PM 51.6845 -2.9327 100° East 537 618 35,000  Level FlightAware ADS-B
12:37PM 51.6716 -2.8107 100° East 538 619 35,000  Level FlightAware ADS-B
12:38PM 51.6588 -2.6900 100° East 540 621 35,000  Level FlightAware ADS-B
12:38PM 51.6455 -2.5654 100° East 540 621 35,000  Level FlightAware ADS-B
12:39PM 51.6325 -2.4462 100° East 540 621 35,000  Level FlightAware ADS-B
12:39PM 51.6190 -2.3236 100° East 542 624 35,000  Level FlightAware ADS-B
12:40PM 51.6058 -2.2048 100° East 542 624 35,000  Level FlightAware ADS-B
12:41PM 51.5903 -2.0654 100° East 543 625 35,000  Level FlightAware ADS-B
12:41PM 51.5769 -1.9467 100° East 544 626 35,000  Level FlightAware ADS-B
12:42PM 51.5631 -1.8262 100° East 544 626 35,000  Level FlightAware ADS-B
12:42PM 51.5490 -1.7042 100° East 544 626 35,000  Level FlightAware ADS-B
12:43PM 51.5351 -1.5848 101° East 543 625 35,000  Level FlightAware ADS-B
12:43PM 51.5210 -1.4647 101° East 542 624 35,000  Level FlightAware ADS-B
12:44PM 51.5066 -1.3441 101° East 543 625 35,000  Level FlightAware ADS-B
12:44PM 51.4922 -1.2235 101° East 543 625 35,000  Level FlightAware ADS-B
12:45PM 51.4775 -1.1023 101° East 543 625 35,000  Level FlightAware ADS-B
12:45PM 51.4632 -0.9825 101° East 543 625 35,000  Level FlightAware ADS-B
12:46PM 51.4486 -0.8612 101° East 543 625 35,000  Level FlightAware ADS-B
12:46PM 51.4338 -0.7393 101° East 542 624 35,000  Level FlightAware ADS-B
12:47PM 51.4189 -0.6183 101° East 543 625 35,000  Level FlightAware ADS-B
12:47PM 51.4041 -0.4996 101° East 542 624 35,000  Level FlightAware ADS-B
12:48PM 51.3891 -0.3804 101° East 541 623 35,000 -420 Level FlightAware ADS-B
12:48PM 51.3742 -0.2623 101° East 532 612 34,600 -1,380 Descending FlightAware ADS-B
12:49PM 51.3590 -0.1439 102° East 521 600 33,600 -1,860 Descending FlightAware ADS-B
12:49PM 51.3441 -0.0288 102° East 510 587 32,700 -1,800 Descending FlightAware ADS-B
12:50PM 51.3290 0.0880 102° East 498 573 31,700 -1,920 Descending FlightAware ADS-B
12:50PM 51.3148 0.1957 102° East 488 562 30,700 -1,920 Descending FlightAware ADS-B
12:51PM 51.3082 0.2467 102° East 481 554 30,300 -1,680 Descending FlightAware ADS-B
12:51PM 51.3054 0.2830 97° East 474 545 30,000 -1,860 Descending FlightAware ADS-B
12:51PM 51.3054 0.3394 90° East 463 533 29,500 -1,980 Descending FlightAware ADS-B
12:51PM 51.3094 0.4412 86° East 454 522 28,500 -1,980 Descending FlightAware ADS-B
12:52PM 51.3136 0.5457 86° East 443 510 27,500 -1,500 Descending FlightAware ADS-B
12:52PM 51.3177 0.6416 86° East 430 495 27,000 -540 Descending FlightAware ADS-B
12:53PM 51.3215 0.7380 86° East 431 496 27,000 -240 Level FlightAware ADS-B
12:54PM 51.3258 0.8400 86° East 427 491 26,800 -1,020 Descending FlightAware ADS-B
12:54PM 51.3253 0.9409 90° East 422 486 25,900 -1,680 Descending FlightAware ADS-B
12:55PM 51.3168 1.0402 98° East 412 474 25,000 -1,620 Descending FlightAware ADS-B
12:55PM 51.3142 1.1330 93° East 404 465 24,200 -1,560 Descending FlightAware ADS-B
12:56PM 51.3091 1.2220 95° East 396 456 23,400 -1,560 Descending FlightAware ADS-B
12:57PM 51.2970 1.3920 96° East 382 440 21,800 -1,560 Descending FlightAware
12:57PM 51.2908 1.4533 99° East 389 448 21,300 -960 Descending FlightAware ADS-B
12:58PM 51.2789 1.5442 102° East 375 432 21,000 -480 Descending FlightAware ADS-B
12:58PM 51.2660 1.6280 104° East 375 432 20,800 -420 Descending FlightAware
12:59PM 51.2480 1.7310 106° East 374 430 20,500 -540 Descending FlightAware
12:59PM 51.2320 1.8320 104° East 371 427 20,100 -480 Descending FlightAware
01:00PM 51.2200 1.9020 105° East 370 426 20,000 -120 Descending FlightAware
01:01PM 51.2010 2.0180 105° East 365 420 20,000  Level FlightAware
01:01PM 51.1820 2.1360 104° East 365 420 20,000  Level FlightAware
01:02PM 51.1640 2.2410 105° East 365 420 20,000  Level FlightAware
01:03PM 51.1480 2.3340 105° East 365 420 20,000  Level FlightAware
01:03PM 51.1280 2.4550 105° East 366 421 20,000  Level FlightAware
01:04PM 51.1110 2.5560 105° East 367 422 20,000  Level FlightAware
01:05PM 51.0940 2.6590 105° East 369 425 20,000  Level FlightAware
01:06PM 51.0790 2.7780 101° East 368 423 20,000  Level FlightAware
01:06PM 51.0670 2.8900 100° East 391 450 20,000 -180 Level FlightAware
01:07PM 51.0560 2.9850 100° East 389 448 19,800 -1,320 Descending FlightAware
01:07PM 51.0440 3.0780 102° East 382 440 18,600 -2,160 Descending FlightAware
01:08PM 51.0280 3.2120 101° East 371 427 16,800 -2,280 Descending FlightAware
01:09PM 51.0140 3.3200 102° East 368 423 15,200 -1,680 Descending FlightAware
01:10PM 51.0000 3.4340 101° East 364 419 14,500 -720 Descending FlightAware
01:10PM 50.9870 3.5410 101° East 362 417 14,200 -540 Descending FlightAware
01:11PM 50.9720 3.6500 102° East 363 418 13,800 -1,080 Descending FlightAware
01:12PM 50.9580 3.7640 101° East 360 414 12,700 -1,440 Descending FlightAware
01:12PM 50.9430 3.8690 103° East 359 413 11,800 -1,440 Descending FlightAware
01:13PM 50.9310 3.9690 101° East 347 399 10,800 -1,080 Descending FlightAware
01:14PM 50.9440 4.0710 79° East 313 360 10,300 -660 Descending FlightAware
01:14PM 50.9550 4.1400 76° East 293 337 10,000 -600 Descending FlightAware
01:15PM 50.9620 4.1750 72° East 279 321 9,800 -840 Descending FlightAware
01:15PM 50.9740 4.2250 69° East 272 313 9,400 -780 Descending FlightAware
01:18PM 50.9000 4.4833 90° East  Level FlightAware Approximate
01:19PM 50.9014 4.4844 90° East  Level Estimated
01:20PM 50.9000 4.4833 90° East  Level FlightAware Approximate
01:21PM 50.9014 4.4844 90° East  Level Estimated
01:22PM 50.9000 4.4833 90° East  Level FlightAware Approximate
01:22PM 51.0320 4.8370 90° East 198 228 3,900  Level FlightAware
01:23PM 51.0210 4.8220 221° Southwest 198 228 3,800 -240 Descending FlightAware
01:23PM 50.9970 4.7910 219° Southwest 186 214 3,700 -180 Descending FlightAware
01:23PM 50.9900 4.7740 237° Southwest 185 213 3,700 -180 Level FlightAware
01:24PM 50.9830 4.7480 247° West 185 213 3,600 -300 Descending FlightAware
01:24PM 50.9750 4.7210 245° Southwest 186 214 3,500 -720 Descending FlightAware
01:25PM 50.9660 4.6880 247° West 179 206 3,000 -960 Descending FlightAware
01:25PM 50.9530 4.6420 246° West 168 193 2,400 -1,020 Descending FlightAware
01:26PM 50.9440 4.6130 244° Southwest 162 186 1,900 -1,020 Descending FlightAware
01:26PM 50.9350 4.5820 245° Southwest 161 185 1,500 -900 Descending FlightAware
01:26PM 50.9320 4.5710 247° West 161 185 1,300 -960 Descending FlightAware
01:27PM 50.9190 4.5250 246° West 161 185 700 -720 Descending FlightAware
01:28PM 50.9050 4.4780 245° Southwest 164 189 300 -540 Descending FlightAware
01:31PM 50.9000 4.4833 90° East  Level FlightAware Approximate
01:32PM 50.9014 4.4844 90° East  Level Estimated